createdAt,value
2019-04-16T00:02:44.434Z,101178.81
2019-04-16T00:05:27.487Z,101172.98
2019-04-16T00:08:02.265Z,101173.45
2019-04-16T00:10:56.830Z,101173.91
2019-04-16T00:13:39.353Z,101165.98
2019-04-16T00:16:12.671Z,101166.16
2019-04-16T00:18:40.788Z,101156.72
2019-04-16T00:21:22.735Z,101161.19
2019-04-16T00:24:20.765Z,101157.03
2019-04-16T00:26:58.074Z,101154.73
2019-04-16T00:29:25.094Z,101149.39
2019-04-16T00:31:58.058Z,101147.20
2019-04-16T00:34:27.375Z,101159.27
2019-04-16T00:36:59.354Z,101144.29
2019-04-16T00:39:29.414Z,101151.67
2019-04-16T00:41:59.131Z,101151.48
2019-04-16T00:44:30.289Z,101146.67
2019-04-16T00:46:59.723Z,101145.30
2019-04-16T00:49:29.131Z,101145.06
2019-04-16T00:51:58.522Z,101145.17
2019-04-16T00:54:27.852Z,101143.61
2019-04-16T00:56:57.135Z,101148.47
2019-04-16T00:59:27.486Z,101142.73
2019-04-16T01:01:57.092Z,101146.97
2019-04-16T01:04:26.657Z,101140.58
2019-04-16T01:06:56.295Z,101142.83
2019-04-16T01:09:25.865Z,101143.47
2019-04-16T01:11:55.529Z,101141.13
2019-04-16T01:14:26.761Z,101139.55
2019-04-16T01:16:56.104Z,101128.27
2019-04-16T01:19:25.477Z,101135.66
2019-04-16T01:21:54.772Z,101126.86
2019-04-16T01:24:24.009Z,101120.05
2019-04-16T01:26:55.372Z,101122.05
2019-04-16T01:29:24.430Z,101121.37
2019-04-16T01:32:12.069Z,101123.00
2019-04-16T01:34:51.280Z,101121.35
2019-04-16T01:37:41.610Z,101118.70
2019-04-16T01:40:11.795Z,101122.97
2019-04-16T01:42:41.113Z,101122.97
2019-04-16T01:45:10.433Z,101110.06
2019-04-16T01:47:39.743Z,101116.00
2019-04-16T01:50:12.925Z,101112.68
2019-04-16T01:52:40.138Z,101109.87
2019-04-16T01:55:09.492Z,101111.00
2019-04-16T01:57:39.333Z,101107.84
2019-04-16T02:00:09.505Z,101103.69
2019-04-16T02:02:38.742Z,101103.69
2019-04-16T02:05:08.302Z,101105.33
2019-04-16T02:07:37.727Z,101100.33
2019-04-16T02:10:08.000Z,101104.27
2019-04-16T02:12:37.503Z,101100.66
2019-04-16T02:15:07.680Z,101099.95
2019-04-16T02:17:37.061Z,101100.98
2019-04-16T02:20:07.408Z,101100.14
2019-04-16T02:22:36.961Z,101104.27
2019-04-16T02:25:07.262Z,101101.24
2019-04-16T02:27:37.971Z,101101.21
2019-04-16T02:30:07.401Z,101096.05
2019-04-16T02:32:36.720Z,101093.60
2019-04-16T02:35:06.800Z,101092.63
2019-04-16T02:37:37.647Z,101091.60
2019-04-16T02:40:07.171Z,101089.89
2019-04-16T02:42:36.988Z,101093.12
2019-04-16T02:45:06.483Z,101084.22
2019-04-16T02:47:39.682Z,101087.22
2019-04-16T02:50:09.739Z,101081.19
2019-04-16T02:53:01.120Z,101081.16
2019-04-16T02:55:42.581Z,101078.16
2019-04-16T02:58:34.027Z,101078.61
2019-04-16T03:01:20.875Z,101085.22
2019-04-16T03:03:56.565Z,101075.91
2019-04-16T03:06:25.912Z,101074.13
2019-04-16T03:08:55.362Z,101073.48
2019-04-16T03:11:24.688Z,101067.25
2019-04-16T03:13:58.251Z,101060.22
2019-04-16T03:16:48.065Z,101057.70
2019-04-16T03:19:21.287Z,101051.91
2019-04-16T03:21:50.561Z,101056.66
2019-04-16T03:24:19.989Z,101053.81
2019-04-16T03:26:50.425Z,101053.98
2019-04-16T03:29:20.596Z,101046.17
2019-04-16T03:31:57.529Z,101058.37
2019-04-16T03:34:22.108Z,101054.75
2019-04-16T03:36:52.175Z,101044.86
2019-04-16T03:39:21.466Z,101040.19
2019-04-16T03:41:55.963Z,101036.45
2019-04-16T03:44:21.950Z,101035.67
2019-04-16T03:46:51.291Z,101034.41
2019-04-16T03:49:20.872Z,101030.55
2019-04-16T03:51:50.233Z,101033.83
2019-04-16T03:54:22.430Z,101027.71
2019-04-16T03:56:50.514Z,101027.71
2019-04-16T03:59:19.852Z,101022.94
2019-04-16T04:01:49.562Z,101021.62
2019-04-16T04:04:18.950Z,101019.46
2019-04-16T04:06:48.268Z,101014.66
2019-04-16T04:09:18.836Z,101021.94
2019-04-16T04:11:48.709Z,101021.30
2019-04-16T04:14:22.118Z,101017.66
2019-04-16T04:16:49.176Z,101017.59
2019-04-16T04:19:18.500Z,101018.23
2019-04-16T04:21:50.585Z,101020.52
2019-04-16T04:24:19.012Z,101026.35
2019-04-16T04:26:48.722Z,101022.03
2019-04-16T04:29:20.742Z,101023.16
2019-04-16T04:31:49.170Z,101024.35
2019-04-16T04:34:18.798Z,101023.71
2019-04-16T04:36:48.467Z,101025.19
2019-04-16T04:39:18.040Z,101027.32
2019-04-16T04:41:47.435Z,101021.71
2019-04-16T04:44:18.632Z,101023.67
2019-04-16T04:46:47.969Z,101027.48
2019-04-16T04:49:17.666Z,101023.42
2019-04-16T04:51:47.367Z,101031.19
2019-04-16T04:54:22.818Z,101018.24
2019-04-16T04:56:50.667Z,101020.95
2019-04-16T04:59:20.082Z,101019.53
2019-04-16T05:01:49.498Z,101023.87
2019-04-16T05:04:36.194Z,101017.66
2019-04-16T05:07:07.579Z,101016.06
2019-04-16T05:09:36.966Z,101021.50
2019-04-16T05:12:08.345Z,101020.02
2019-04-16T05:14:40.989Z,101026.35
2019-04-16T05:17:10.329Z,101030.08
2019-04-16T05:19:39.659Z,101023.78
2019-04-16T05:22:09.347Z,101024.88
2019-04-16T05:24:38.945Z,101021.02
2019-04-16T05:27:09.369Z,101025.84
2019-04-16T05:29:38.787Z,101030.59
2019-04-16T05:32:08.121Z,101037.26
2019-04-16T05:34:38.465Z,101034.62
2019-04-16T05:37:07.998Z,101035.20
2019-04-16T05:39:37.385Z,101035.77
2019-04-16T05:42:06.833Z,101040.37
2019-04-16T05:44:36.182Z,101042.57
2019-04-16T05:47:05.550Z,101045.44
2019-04-16T05:49:34.933Z,101045.12
2019-04-16T05:52:05.324Z,101046.30
2019-04-16T05:54:53.648Z,101044.83
2019-04-16T05:57:27.828Z,101044.39
2019-04-16T05:59:57.087Z,101042.88
2019-04-16T06:02:51.467Z,101042.07
2019-04-16T06:05:21.016Z,101039.94
2019-04-16T06:07:50.348Z,101046.23
2019-04-16T06:10:19.911Z,101036.28
2019-04-16T06:13:11.987Z,101038.08
2019-04-16T06:15:46.395Z,101042.24
2019-04-16T06:18:49.689Z,101041.70
2019-04-16T06:21:40.467Z,101045.69
2019-04-16T06:24:21.317Z,101040.80
2019-04-16T06:27:08.494Z,101033.30
2019-04-16T06:29:48.074Z,101036.80
2019-04-16T06:32:28.106Z,101040.02
2019-04-16T06:35:25.168Z,101038.77
2019-04-16T06:38:04.510Z,101036.98
2019-04-16T06:40:47.488Z,101035.65
2019-04-16T06:43:25.229Z,101031.55
2019-04-16T06:46:13.793Z,101032.45
2019-04-16T06:48:58.914Z,101036.48
2019-04-16T06:51:43.592Z,101044.11
2019-04-16T06:54:46.283Z,101039.05
2019-04-16T06:57:43.884Z,101040.94
2019-04-16T07:00:44.323Z,101034.16
2019-04-16T07:03:38.474Z,101027.69
2019-04-16T07:06:35.923Z,101024.93
2019-04-16T07:09:25.784Z,101020.23
2019-04-16T07:11:55.850Z,101022.05
2019-04-16T07:14:25.236Z,101021.11
2019-04-16T07:16:54.492Z,101023.03
2019-04-16T07:19:25.438Z,101013.95
2019-04-16T07:21:54.764Z,101022.73
2019-04-16T07:24:30.112Z,101024.95
2019-04-16T07:26:56.649Z,101018.84
2019-04-16T07:29:32.673Z,101027.67
2019-04-16T07:32:32.113Z,101026.53
2019-04-16T07:35:18.993Z,101027.33
2019-04-16T07:38:07.453Z,101020.02
2019-04-16T07:40:54.537Z,101026.61
2019-04-16T07:43:41.449Z,101019.25
2019-04-16T07:46:38.880Z,101017.19
2019-04-16T07:49:18.473Z,101016.23
2019-04-16T07:52:07.266Z,101023.91
2019-04-16T07:54:54.032Z,101016.27
2019-04-16T07:57:23.411Z,101015.64
2019-04-16T07:59:52.717Z,101021.28
2019-04-16T08:02:22.494Z,101008.14
2019-04-16T08:04:51.874Z,101006.09
2019-04-16T08:07:21.413Z,101008.60
2019-04-16T08:09:50.677Z,101007.48
2019-04-16T08:12:30.045Z,101008.48
2019-04-16T08:14:51.129Z,101006.58
2019-04-16T08:17:20.979Z,101003.00
2019-04-16T08:19:50.278Z,101000.17
2019-04-16T08:22:19.702Z,100996.48
2019-04-16T08:24:57.607Z,100999.89
2019-04-16T08:27:24.387Z,100993.17
2019-04-16T08:29:53.820Z,100990.71
2019-04-16T08:32:25.759Z,100990.80
2019-04-16T08:34:54.215Z,100992.23
2019-04-16T08:37:23.549Z,100991.29
2019-04-16T08:39:52.900Z,100986.41
2019-04-16T08:42:25.231Z,100976.47
2019-04-16T08:44:53.151Z,100976.43
2019-04-16T08:47:22.410Z,100971.94
2019-04-16T08:49:54.144Z,100973.36
2019-04-16T08:52:23.007Z,100967.52
2019-04-16T08:54:54.870Z,100970.42
2019-04-16T08:57:23.436Z,100961.83
2019-04-16T08:59:52.692Z,100959.34
2019-04-16T09:02:23.504Z,100960.69
2019-04-16T09:04:52.970Z,100954.03
2019-04-16T09:07:40.462Z,100958.92
2019-04-16T09:10:19.091Z,100958.48
2019-04-16T09:12:47.603Z,100957.85
2019-04-16T09:15:22.607Z,100954.63
2019-04-16T09:18:00.392Z,100958.03
2019-04-16T09:20:38.553Z,100952.64
2019-04-16T09:23:07.874Z,100952.69
2019-04-16T09:25:46.681Z,100951.75
2019-04-16T09:28:25.820Z,100950.69
2019-04-16T09:31:08.663Z,100949.83
2019-04-16T09:33:59.051Z,100953.48
2019-04-16T09:36:40.756Z,100955.15
2019-04-16T09:39:34.889Z,100956.93
2019-04-16T09:42:04.411Z,100955.30
2019-04-16T09:44:35.525Z,100951.83
2019-04-16T09:47:05.372Z,100949.03
2019-04-16T09:49:37.613Z,100953.64
2019-04-16T09:52:06.015Z,100959.33
2019-04-16T09:54:35.539Z,100955.44
2019-04-16T09:57:05.004Z,100946.24
2019-04-16T09:59:47.659Z,100950.33
2019-04-16T10:02:24.008Z,100943.45
2019-04-16T10:04:53.378Z,100941.56
2019-04-16T10:07:22.680Z,100936.52
2019-04-16T10:09:54.501Z,100941.41
2019-04-16T10:12:23.186Z,100936.41
2019-04-16T10:14:52.442Z,100932.24
2019-04-16T10:17:21.802Z,100927.73
2019-04-16T10:19:51.093Z,100927.60
2019-04-16T10:22:21.810Z,100929.45
2019-04-16T10:25:05.324Z,100925.14
2019-04-16T10:27:45.730Z,100915.95
2019-04-16T10:30:23.712Z,100921.16
2019-04-16T10:32:52.962Z,100919.83
2019-04-16T10:35:22.713Z,100921.09
2019-04-16T10:37:52.040Z,100918.30
2019-04-16T10:40:38.400Z,100906.50
2019-04-16T10:43:25.280Z,100908.21
2019-04-16T10:46:25.560Z,100906.75
2019-04-16T10:49:16.786Z,100902.20
2019-04-16T10:52:04.920Z,100901.58
2019-04-16T10:54:41.880Z,100901.50
2019-04-16T10:57:28.643Z,100900.72
2019-04-16T11:00:25.631Z,100892.58
2019-04-16T11:03:03.022Z,100891.70
2019-04-16T11:05:42.875Z,100884.58
2019-04-16T11:08:12.990Z,100891.67
2019-04-16T11:10:42.235Z,100892.94
2019-04-16T11:13:16.730Z,100895.05
2019-04-16T11:15:46.023Z,100891.45
2019-04-16T11:18:15.258Z,100898.20
2019-04-16T11:20:44.665Z,100896.66
2019-04-16T11:23:14.045Z,100893.73
2019-04-16T11:25:43.211Z,100890.53
2019-04-16T11:28:14.268Z,100888.47
2019-04-16T11:30:48.735Z,100891.33
2019-04-16T11:33:17.677Z,100890.34
2019-04-16T11:35:46.941Z,100889.83
2019-04-16T11:38:17.664Z,100880.57
2019-04-16T11:40:47.313Z,100878.45
2019-04-16T11:43:16.713Z,100878.69
2019-04-16T11:45:46.111Z,100874.00
2019-04-16T11:48:15.407Z,100877.69
2019-04-16T11:50:44.843Z,100879.75
2019-04-16T11:53:14.560Z,100872.38
2019-04-16T11:55:44.030Z,100873.24
2019-04-16T11:58:36.953Z,100864.21
2019-04-16T12:01:16.899Z,100868.53
2019-04-16T12:04:02.612Z,100868.58
2019-04-16T12:06:42.122Z,100872.70
2019-04-16T12:09:28.700Z,100863.38
2019-04-16T12:12:03.071Z,100871.77
2019-04-16T12:14:59.160Z,100871.48
2019-04-16T12:17:36.309Z,100869.41
2019-04-16T12:20:32.526Z,100869.28
2019-04-16T12:23:08.426Z,100875.50
2019-04-16T12:25:44.713Z,100871.91
2019-04-16T12:28:27.469Z,100870.19
2019-04-16T12:31:11.637Z,100869.05
2019-04-16T12:33:52.302Z,100866.95
2019-04-16T12:36:32.412Z,100862.37
2019-04-16T12:39:19.567Z,100863.47
2019-04-16T12:42:16.298Z,100856.67
2019-04-16T12:44:51.782Z,100856.14
2019-04-16T12:47:52.157Z,100858.32
2019-04-16T12:50:43.461Z,100850.13
2019-04-16T12:53:36.175Z,100851.77
2019-04-16T12:56:24.636Z,100847.95
2019-04-16T12:59:12.974Z,100843.47
2019-04-16T13:02:14.330Z,100840.30
2019-04-16T13:05:08.599Z,100836.08
2019-04-16T13:07:51.239Z,100827.42
2019-04-16T13:10:33.065Z,100833.33
2019-04-16T13:13:13.437Z,100833.27
2019-04-16T13:15:50.461Z,100827.89
2019-04-16T13:18:24.003Z,100826.46
2019-04-16T13:21:21.404Z,100825.01
2019-04-16T13:24:12.581Z,100829.97
2019-04-16T13:26:59.196Z,100815.56
2019-04-16T13:29:30.691Z,100828.57
2019-04-16T13:32:00.043Z,100822.48
2019-04-16T13:34:29.446Z,100819.54
2019-04-16T13:36:59.680Z,100820.46
2019-04-16T13:39:46.468Z,100810.41
2019-04-16T13:42:15.808Z,100821.59
2019-04-16T13:44:55.551Z,100813.11
2019-04-16T13:47:24.958Z,100812.30
2019-04-16T13:50:04.224Z,100810.47
2019-04-16T13:52:33.353Z,100796.14
2019-04-16T13:55:17.693Z,100795.78
2019-04-16T13:58:02.219Z,100798.83
2019-04-16T14:00:37.136Z,100802.35
2019-04-16T14:03:12.106Z,100804.74
2019-04-16T14:05:42.763Z,100795.33
2019-04-16T14:08:12.158Z,100796.92
2019-04-16T14:10:43.357Z,100798.23
2019-04-16T14:13:13.732Z,100797.35
2019-04-16T14:15:44.862Z,100795.58
2019-04-16T14:18:14.271Z,100791.18
2019-04-16T14:20:43.689Z,100792.94
2019-04-16T14:23:12.948Z,100796.60
2019-04-16T14:25:42.725Z,100790.98
2019-04-16T14:28:12.431Z,100793.00
2019-04-16T14:30:45.713Z,100793.74
2019-04-16T14:33:19.238Z,100789.63
2019-04-16T14:35:48.642Z,100784.00
2019-04-16T14:38:23.134Z,100783.66
2019-04-16T14:40:52.458Z,100779.00
2019-04-16T14:43:29.174Z,100784.55
2019-04-16T14:45:59.786Z,100781.82
2019-04-16T14:48:27.912Z,100784.73
2019-04-16T14:50:57.171Z,100781.88
2019-04-16T14:53:34.275Z,100775.38
2019-04-16T14:56:25.682Z,100775.87
2019-04-16T14:59:03.432Z,100779.20
2019-04-16T15:01:57.414Z,100780.86
2019-04-16T15:04:32.243Z,100778.75
2019-04-16T15:07:19.122Z,100776.36
2019-04-16T15:10:13.421Z,100769.73
2019-04-16T15:12:50.239Z,100775.79
2019-04-16T15:15:23.669Z,100767.22
2019-04-16T15:17:59.922Z,100771.49
2019-04-16T15:20:51.401Z,100773.48
2019-04-16T15:24:01.361Z,100774.54
2019-04-16T15:26:54.210Z,100772.84
2019-04-16T15:29:39.040Z,100772.73
2019-04-16T15:32:27.242Z,100765.38
2019-04-16T15:34:56.992Z,100767.02
2019-04-16T15:37:48.252Z,100765.23
2019-04-16T15:40:40.314Z,100765.83
2019-04-16T15:43:27.408Z,100763.94
2019-04-16T15:46:26.234Z,100768.27
2019-04-16T15:49:11.965Z,100768.36
2019-04-16T15:51:56.939Z,100769.09
2019-04-16T15:54:43.585Z,100766.39
2019-04-16T15:57:31.923Z,100765.33
2019-04-16T16:00:09.399Z,100769.19
2019-04-16T16:03:09.658Z,100769.19
2019-04-16T16:05:53.086Z,100767.18
2019-04-16T16:08:36.313Z,100767.06
2019-04-16T16:11:09.467Z,100766.98
2019-04-16T16:13:38.847Z,100770.50
2019-04-16T16:16:10.453Z,100772.01
2019-04-16T16:18:39.819Z,100769.64
2019-04-16T16:21:09.163Z,100774.05
2019-04-16T16:23:38.511Z,100772.72
2019-04-16T16:26:07.782Z,100775.33
2019-04-16T16:28:37.253Z,100772.37
2019-04-16T16:31:06.671Z,100779.45
2019-04-16T16:33:35.977Z,100777.27
2019-04-16T16:36:05.291Z,100774.12
2019-04-16T16:38:34.707Z,100779.70
2019-04-16T16:41:03.981Z,100781.52
2019-04-16T16:43:33.329Z,100783.28
2019-04-16T16:46:08.780Z,100777.94
2019-04-16T16:48:38.534Z,100782.89
2019-04-16T16:51:07.889Z,100788.10
2019-04-16T16:54:02.272Z,100790.09
2019-04-16T16:57:08.877Z,100794.09
2019-04-16T16:59:58.300Z,100789.37
2019-04-16T17:02:43.704Z,100801.16
2019-04-16T17:05:17.474Z,100794.54
2019-04-16T17:07:46.761Z,100793.48
2019-04-16T17:10:16.081Z,100801.64
2019-04-16T17:12:45.537Z,100803.00
2019-04-16T17:15:15.119Z,100807.02
2019-04-16T17:17:44.513Z,100811.89
2019-04-16T17:20:13.839Z,100810.91
2019-04-16T17:22:43.201Z,100809.83
2019-04-16T17:25:12.570Z,100816.63
2019-04-16T17:27:51.056Z,100814.16
2019-04-16T17:30:13.720Z,100819.37
2019-04-16T17:32:43.060Z,100818.84
2019-04-16T17:35:15.404Z,100817.45
2019-04-16T17:37:43.673Z,100822.58
2019-04-16T17:40:29.272Z,100822.34
2019-04-16T17:43:02.849Z,100826.80
2019-04-16T17:45:46.247Z,100824.30
2019-04-16T17:48:43.393Z,100833.42
2019-04-16T17:51:26.483Z,100837.42
2019-04-16T17:54:14.669Z,100846.21
2019-04-16T17:57:01.570Z,100849.86
2019-04-16T17:59:43.242Z,100850.27
2019-04-16T18:02:40.050Z,100855.20
2019-04-16T18:05:28.330Z,100852.38
2019-04-16T18:08:19.431Z,100855.08
2019-04-16T18:11:10.849Z,100861.81
2019-04-16T18:14:10.451Z,100861.32
2019-04-16T18:16:41.307Z,100860.09
2019-04-16T18:19:18.190Z,100871.98
2019-04-16T18:21:54.526Z,100869.30
2019-04-16T18:24:41.501Z,100877.27
2019-04-16T18:27:25.541Z,100881.64
2019-04-16T18:30:13.435Z,100881.13
2019-04-16T18:33:07.236Z,100890.50
2019-04-16T18:35:40.672Z,100896.77
2019-04-16T18:38:15.858Z,100896.93
2019-04-16T18:40:49.679Z,100897.87
2019-04-16T18:43:47.231Z,100899.52
2019-04-16T18:46:30.134Z,100900.36
2019-04-16T18:49:07.547Z,100898.96
2019-04-16T18:51:36.914Z,100902.81
2019-04-16T18:54:06.409Z,100912.91
2019-04-16T18:56:35.979Z,100918.43
2019-04-16T18:59:05.718Z,100922.11
2019-04-16T19:01:35.746Z,100921.05
2019-04-16T19:04:05.760Z,100927.23
2019-04-16T19:06:35.680Z,100928.16
2019-04-16T19:09:07.234Z,100933.69
2019-04-16T19:11:36.996Z,100928.99
2019-04-16T19:14:09.766Z,100943.72
2019-04-16T19:16:38.078Z,100939.09
2019-04-16T19:19:07.821Z,100946.27
2019-04-16T19:21:37.427Z,100955.63
2019-04-16T19:24:07.029Z,100955.46
2019-04-16T19:26:36.786Z,100957.48
2019-04-16T19:29:13.318Z,100961.80
2019-04-16T19:31:40.281Z,100963.88
2019-04-16T19:34:10.691Z,100967.41
2019-04-16T19:36:42.662Z,100966.27
2019-04-16T19:39:15.178Z,100975.13
2019-04-16T19:41:43.890Z,100977.70
2019-04-16T19:44:13.619Z,100977.00
2019-04-16T19:46:45.988Z,100985.97
2019-04-16T19:49:14.939Z,100982.24
2019-04-16T19:51:44.711Z,100989.20
2019-04-16T19:54:14.399Z,100990.83
2019-04-16T19:56:43.993Z,100990.51
2019-04-16T19:59:13.600Z,100991.45
2019-04-16T20:01:43.399Z,100988.98
2019-04-16T20:04:13.139Z,100993.73
2019-04-16T20:06:44.976Z,101000.03
2019-04-16T20:09:14.633Z,101001.05
2019-04-16T20:11:44.923Z,101009.41
2019-04-16T20:14:14.454Z,101018.56
2019-04-16T20:16:46.646Z,101021.16
2019-04-16T20:19:16.202Z,101028.61
2019-04-16T20:21:45.859Z,101037.69
2019-04-16T20:24:15.122Z,101052.65
2019-04-16T20:26:48.937Z,101070.91
2019-04-16T20:29:18.472Z,101071.03
2019-04-16T20:31:47.817Z,101071.06
2019-04-16T20:34:18.193Z,101068.06
2019-04-16T20:36:47.778Z,101073.47
2019-04-16T20:39:17.062Z,101078.84
2019-04-16T20:41:52.724Z,101077.28
2019-04-16T20:44:19.187Z,101078.28
2019-04-16T20:46:48.516Z,101068.74
2019-04-16T20:49:17.772Z,101076.48
2019-04-16T20:51:47.133Z,101079.67
2019-04-16T20:54:16.332Z,101076.88
2019-04-16T20:56:45.607Z,101074.44
2019-04-16T20:59:14.887Z,101070.83
2019-04-16T21:01:46.061Z,101080.99
2019-04-16T21:04:15.389Z,101073.14
2019-04-16T21:06:44.678Z,101079.70
2019-04-16T21:09:14.018Z,101073.80
2019-04-16T21:11:43.403Z,101083.25
2019-04-16T21:14:12.995Z,101081.39
2019-04-16T21:16:42.302Z,101088.94
2019-04-16T21:19:22.837Z,101093.23
2019-04-16T21:21:42.813Z,101092.16
2019-04-16T21:24:13.692Z,101092.08
2019-04-16T21:26:43.172Z,101089.78
2019-04-16T21:29:26.138Z,101090.47
2019-04-16T21:31:59.385Z,101091.81
2019-04-16T21:34:40.980Z,101091.53
2019-04-16T21:37:41.413Z,101092.25
2019-04-16T21:40:10.894Z,101094.70
2019-04-16T21:42:40.201Z,101096.11
2019-04-16T21:45:09.991Z,101102.21
2019-04-16T21:47:39.355Z,101101.98
2019-04-16T21:50:09.174Z,101100.86
2019-04-16T21:52:38.535Z,101106.73
2019-04-16T21:55:08.271Z,101106.45
2019-04-16T21:57:37.557Z,101103.78
2019-04-16T22:00:09.773Z,101097.14
2019-04-16T22:02:39.799Z,101101.13
2019-04-16T22:05:10.393Z,101102.80
2019-04-16T22:07:39.634Z,101105.63
2019-04-16T22:10:09.071Z,101106.81
2019-04-16T22:12:38.385Z,101110.36
2019-04-16T22:15:08.149Z,101115.20
2019-04-16T22:17:37.474Z,101110.36
2019-04-16T22:20:07.401Z,101114.02
2019-04-16T22:22:36.651Z,101119.05
2019-04-16T22:25:06.247Z,101125.03
2019-04-16T22:27:36.868Z,101129.56
2019-04-16T22:30:06.843Z,101125.23
2019-04-16T22:32:36.184Z,101128.73
2019-04-16T22:35:05.594Z,101126.77
2019-04-16T22:37:35.038Z,101133.92
2019-04-16T22:40:32.538Z,101133.61
2019-04-16T22:43:20.834Z,101129.63
2019-04-16T22:45:57.623Z,101130.31
2019-04-16T22:48:26.913Z,101133.85
2019-04-16T22:50:56.401Z,101140.36
2019-04-16T22:53:25.762Z,101141.85
2019-04-16T22:55:56.669Z,101139.04
2019-04-16T22:58:46.204Z,101131.73
2019-04-16T23:01:15.555Z,101137.41
2019-04-16T23:03:44.960Z,101134.44
2019-04-16T23:06:14.282Z,101142.43
2019-04-16T23:08:44.302Z,101135.96
2019-04-16T23:11:15.406Z,101139.81
2019-04-16T23:13:44.783Z,101143.50
2019-04-16T23:16:14.128Z,101145.52
2019-04-16T23:18:43.411Z,101142.89
2019-04-16T23:21:12.740Z,101144.22
2019-04-16T23:23:42.098Z,101148.25
2019-04-16T23:26:11.342Z,101144.25
2019-04-16T23:28:42.495Z,101153.76
2019-04-16T23:31:11.626Z,101146.11
2019-04-16T23:33:40.968Z,101142.77
2019-04-16T23:36:15.029Z,101156.27
2019-04-16T23:38:42.307Z,101154.59
2019-04-16T23:41:15.321Z,101155.92
2019-04-16T23:44:15.721Z,101148.93
2019-04-16T23:47:10.513Z,101151.25
2019-04-16T23:49:46.045Z,101147.91
2019-04-16T23:52:24.101Z,101152.55
2019-04-16T23:55:05.546Z,101151.22
2019-04-16T23:57:53.577Z,101151.56
